Corpus Christi Naval Air Station/Truax Field
KNGP : now visible

Airfield :











YOU CAN JOIN US ON...

 
LOGIN :

Register | Disclaimer

   EN    FR    IT 

 









Legend :    VFR   Marginal VFR   IFR   Intensive IFR   Very Intensive IFR
Visi :
Ceiling :
>= 8 km
>= 3000ft
5 to 8 km
1000 to 3000 ft
1500m to 5 km
500 to 1000 ft
800 to 1500m
200 to 500 ft
< 800m
< 200 ft
Symbols :   Thunderstorms  Fog  Heavy snow  Heavy precipitations  Wind > 20 kt






- Airport Elevation : 18 ft


KNGP - Corpus Christi Naval Air Station/Truax Field

CURRENT METAR :
  • 271729Z 13005KT 2SM BR OVC003 17/17 A3004 RMK AO2 VIS W 4 T01720172

EXPIRED METARs :
  • 271656Z 09004KT 5SM BR OVC003 17/17 A3004 RMK AO2 SLP173 VIS NE-SE 1 T01720172
  • 271556Z 10003KT 5SM BR BKN004 BKN007 BKN012 17/17 A3003 RMK AO2 SLP169 T01720172 $
  • 271523Z 28003KT 4SM BR BKN003 BKN011 16/16 A3003 RMK AO2 VIS N-NE 3/4 T01560156 $
  • 271456Z 30003KT 1 1/2SM BR OVC004 14/14 A3004 RMK AO2 SLP170 VIS N-NE 1/2 60000 T01440144 53017

TAF TAF KNGP
Valid from the 27 at 15:00 until the 28 at 15:00 UTC


2715/2815 VRB05KT 3200 BR OVC005 QNH3001INS
TEMPO 2715/2716 1200 BR OVC003
FM271630 VRB06KT 8000 BR BKN006 BKN010 QNH3000INS
TEMPO 2716/2717 4000 BR
FM271700 VRB06KT 9999 SCT006 SCT012 QNH2994INS
TEMPO 2717/2718 SCT006 BKN012
FM272000 10012G18KT 9999 FEW010 QNH2989INS
FM272300 12014G20KT 9999 FEW006 SCT015 QNH2987INS
FM280300 15014G20KT 9999 FEW004 SCT012 SCT120 QNH2983INS
FM280900 16008KT 9999 FEW010 SCT025 SCT120 BKN250 QNH2984INS
FM281200 VRB04KT 6000 BR FEW015 BKN025 BKN120 OVC250 QNH2986INS
FM281500 VRB06KT 9999 VCSH SCT012 BKN020 OVC100 QNH2991INS T14/2715Z T23/2720Z FN20044



MET'MAP, your aeronautical weather chart ! - Copyright ORBIFLY December 2007 - Disclaimer

ORBIFLY MET'MAP TEAM :

Programming & Development : Alexandra Zaïnal
Concept & original design : Baudouin d'Aumeries
Assistance for programming : Marc-Olivier Méhu
Technical & hardware support : Manuel Goepfert

Contact : metmap@orbifly.com




SOURCES & CREDITS :

   NOAA       Earth
Advisory